Time;durP1;ratioP1;P1;durP2;ratioP2;P2;SDS_P1;SDS_P2;PMS_P1;PMS_P2;Temp;Humidity;BMP_temperature;BMP_pressure;BME280_temperature;BME280_humidity;BME280_pressure;Samples;Min_cycle;Max_cycle;Signal;HPM_P1;HPM_P2
2022/01/24 00:01:37;;;;;;;8.13;6.15;;;;;;;2.68;73.61;98226.53;5015310;28;20053;-77
2022/01/24 00:04:05;;;;;;;7.43;5.38;;;;;;;2.72;72.87;98230.56;5015139;28;20050;-77
2022/01/24 00:06:33;;;;;;;9.48;6.50;;;;;;;2.71;72.29;98234.06;5014766;28;20053;-77
2022/01/24 00:09:01;;;;;;;8.52;5.68;;;;;;;2.70;71.86;98229.84;5015045;28;20404;-77
2022/01/24 00:11:39;;;;;;;10.40;7.13;;;;;;;2.68;71.67;98223.94;5015079;28;20104;-77
2022/01/24 00:14:52;;;;;;;7.28;6.18;;;;;;;2.71;72.10;98226.31;5015435;28;20054;-78
2022/01/24 00:17:31;;;;;;;6.75;5.22;;;;;;;2.77;71.66;98231.13;5014698;28;20054;-77
2022/01/24 00:28:17;;;;;;;9.23;7.18;;;;;;;2.78;72.79;98237.94;5014653;28;20049;-78
2022/01/24 00:30:46;;;;;;;6.20;5.40;;;;;;;2.82;72.35;98231.69;5014996;28;20073;-77
2022/01/24 00:33:14;;;;;;;7.65;5.80;;;;;;;2.80;71.40;98227.53;5014779;28;20046;-77
2022/01/24 00:35:42;;;;;;;6.20;5.22;;;;;;;2.81;71.55;98237.75;5014757;28;20072;-77
2022/01/24 00:38:09;;;;;;;8.82;6.47;;;;;;;2.83;71.60;98240.25;5014917;28;20405;-78
2022/01/24 00:40:39;;;;;;;7.60;5.90;;;;;;;2.80;70.91;98240.41;5015697;28;20550;-77
2022/01/24 00:43:18;;;;;;;7.40;5.68;;;;;;;2.78;70.99;98237.94;5015956;28;20054;-77
2022/01/24 00:45:57;;;;;;;9.15;6.00;;;;;;;2.81;71.42;98234.34;5015600;28;20393;-80
2022/01/24 00:56:48;;;;;;;6.32;5.65;;;;;;;2.88;71.63;98235.63;4971979;28;20054;-77
2022/01/24 00:59:15;;;;;;;6.75;5.95;;;;;;;2.88;71.14;98236.44;4995227;28;20058;-77
2022/01/24 01:01:44;;;;;;;9.48;6.47;;;;;;;2.88;71.28;98245.94;5014195;28;20061;-77
2022/01/24 01:04:11;;;;;;;6.90;6.15;;;;;;;2.85;71.31;98231.47;5014291;28;20061;-77
2022/01/24 01:06:42;;;;;;;7.70;6.32;;;;;;;2.84;71.29;98231.56;5014091;28;20053;-77
2022/01/24 01:20:09;;;;;;;8.25;6.22;;;;;;;2.96;71.46;98240.31;5005300;28;20103;-77
2022/01/24 01:22:36;;;;;;;10.77;6.70;;;;;;;3.00;71.96;98241.78;5013706;28;20419;-77
2022/01/24 01:25:04;;;;;;;8.05;6.10;;;;;;;3.03;71.85;98233.88;5013759;28;20503;-77
2022/01/24 01:27:37;;;;;;;8.52;6.72;;;;;;;3.06;72.54;98237.09;5013502;28;20058;-77
2022/01/24 01:30:12;;;;;;;7.90;6.25;;;;;;;3.10;72.16;98232.56;5014001;28;20057;-77
2022/01/24 01:32:55;;;;;;;7.43;5.97;;;;;;;3.10;71.46;98237.72;5013498;28;20512;-77
2022/01/24 01:35:41;;;;;;;6.88;6.03;;;;;;;3.06;71.36;98229.34;5013445;28;20137;-77
2022/01/24 01:38:32;;;;;;;8.13;6.35;;;;;;;3.08;72.02;98218.94;5012660;28;20046;-79
2022/01/24 01:55:07;;;;;;;8.93;7.38;;;;;;;3.01;72.03;98230.56;5013513;28;20496;-78
2022/01/24 01:57:34;;;;;;;11.63;7.88;;;;;;;3.03;71.76;98226.13;5013234;28;20045;-77
2022/01/24 02:00:03;;;;;;;9.35;7.35;;;;;;;3.04;71.88;98217.47;5013596;28;20064;-77
2022/01/24 02:02:31;;;;;;;11.57;7.60;;;;;;;3.08;72.48;98224.09;5013108;28;20057;-77
2022/01/24 02:05:00;;;;;;;11.98;7.53;;;;;;;3.11;71.98;98223.09;5013238;28;20050;-77
2022/01/24 02:07:27;;;;;;;13.43;8.70;;;;;;;3.14;71.83;98225.47;5012899;28;20046;-77
2022/01/24 02:09:55;;;;;;;8.30;6.63;;;;;;;3.15;71.96;98224.53;5013051;28;20495;-77
2022/01/24 02:12:25;;;;;;;8.55;6.05;;;;;;;3.12;71.42;98214.41;5013106;28;20467;-79
2022/01/24 02:14:57;;;;;;;9.68;7.05;;;;;;;3.10;72.17;98217.09;5013209;28;20050;-77
2022/01/24 02:17:35;;;;;;;10.20;7.03;;;;;;;3.05;71.46;98213.97;5013049;28;20054;-77
2022/01/24 02:20:13;;;;;;;12.55;7.93;;;;;;;3.00;71.53;98208.28;5013050;28;20054;-77
2022/01/24 02:22:49;;;;;;;12.52;7.95;;;;;;;2.97;71.64;98205.88;5013083;28;20057;-77
2022/01/24 02:25:26;;;;;;;15.20;8.38;;;;;;;2.98;71.66;98200.63;5013132;28;20073;-79
2022/01/24 02:28:00;;;;;;;10.68;6.82;;;;;;;2.99;71.53;98191.97;5012896;28;20496;-77
2022/01/24 02:30:49;;;;;;;8.50;5.85;;;;;;;2.99;71.32;98184.22;5012846;28;20049;-77
2022/01/24 02:33:17;;;;;;;11.20;7.03;;;;;;;2.97;71.27;98180.91;5012928;28;20050;-78
2022/01/24 02:35:45;;;;;;;15.73;9.00;;;;;;;2.97;70.85;98187.84;5012960;28;20049;-77
2022/01/24 02:38:23;;;;;;;20.48;11.13;;;;;;;2.97;73.38;98180.91;5012992;28;20054;-77
2022/01/24 02:49:03;;;;;;;11.55;7.88;;;;;;;2.97;72.72;98165.44;5015046;28;20054;-77
2022/01/24 02:51:45;;;;;;;10.30;8.43;;;;;;;3.02;73.67;98157.47;5016576;28;20049;-77
2022/01/24 02:54:22;;;;;;;11.50;6.70;;;;;;;3.03;71.81;98164.25;5017160;28;20057;-77
2022/01/24 02:56:51;;;;;;;7.28;6.10;;;;;;;2.98;72.15;98148.25;5016682;28;20050;-77
2022/01/24 02:59:18;;;;;;;8.98;6.65;;;;;;;2.95;71.96;98130.38;5016808;28;20424;-78
2022/01/24 03:01:46;;;;;;;6.60;5.80;;;;;;;2.92;71.16;98139.16;5016580;28;20054;-77
2022/01/24 03:04:15;;;;;;;6.38;5.78;;;;;;;2.87;71.37;98144.59;5016529;28;20061;-77
2022/01/24 03:06:43;;;;;;;5.75;5.13;;;;;;;2.82;71.00;98138.91;5015796;28;20081;-77
2022/01/24 03:09:11;;;;;;;7.88;5.95;;;;;;;2.79;71.76;98141.66;5016470;28;20057;-77
2022/01/24 03:12:07;;;;;;;5.85;5.03;;;;;;;2.77;71.54;98132.38;5016220;28;20061;-77
2022/01/24 03:14:37;;;;;;;6.53;5.38;;;;;;;2.72;71.06;98148.13;5015871;28;20537;-78
2022/01/24 03:17:06;;;;;;;5.28;4.78;;;;;;;2.64;71.04;98146.00;5015940;28;20546;-77
2022/01/24 03:19:34;;;;;;;6.50;5.25;;;;;;;2.62;71.59;98147.88;5016251;28;20531;-77
2022/01/24 03:22:02;;;;;;;5.82;5.30;;;;;;;2.61;71.34;98153.09;5016327;28;20060;-77
2022/01/24 03:24:30;;;;;;;7.53;6.72;;;;;;;2.62;72.46;98160.75;5016048;28;20054;-78
2022/01/24 03:26:58;;;;;;;6.30;5.30;;;;;;;2.64;71.58;98158.88;5015660;28;20046;-77
2022/01/24 03:29:26;;;;;;;8.07;5.40;;;;;;;2.64;71.38;98158.06;5016452;28;20479;-77
2022/01/24 03:31:53;;;;;;;5.88;5.28;;;;;;;2.65;71.51;98157.16;5015624;28;20503;-77
2022/01/24 03:34:21;;;;;;;6.65;5.43;;;;;;;2.64;71.57;98146.00;5015814;28;20053;-77
2022/01/24 03:36:48;;;;;;;5.78;4.95;;;;;;;2.66;71.76;98156.22;5015587;28;20061;-79
2022/01/24 03:39:16;;;;;;;5.13;4.55;;;;;;;2.63;71.36;98148.69;5015729;28;20054;-77
2022/01/24 03:41:43;;;;;;;6.90;5.60;;;;;;;2.62;71.16;98147.88;5015401;28;20057;-77
2022/01/24 03:44:14;;;;;;;6.20;4.97;;;;;;;2.63;71.09;98146.94;5015326;28;20050;-77
2022/01/24 03:46:59;;;;;;;5.63;4.82;;;;;;;2.64;71.30;98148.56;5015502;28;20080;-77
2022/01/24 03:49:47;;;;;;;5.80;5.05;;;;;;;2.60;71.14;98147.13;5015464;28;20504;-78
2022/01/24 03:52:17;;;;;;;5.25;4.75;;;;;;;2.56;71.03;98149.97;5015540;28;20046;-80
2022/01/24 03:54:44;;;;;;;7.25;5.00;;;;;;;2.59;71.73;98147.22;5015369;28;20081;-77
2022/01/24 03:57:14;;;;;;;4.63;4.07;;;;;;;2.59;71.22;98150.63;5015333;28;20045;-77
2022/01/24 03:59:43;;;;;;;6.10;4.60;;;;;;;2.61;70.95;98147.94;5014609;28;20061;-77
2022/01/24 04:02:12;;;;;;;6.50;4.82;;;;;;;2.61;71.29;98142.81;5015067;28;20496;-77
2022/01/24 04:04:40;;;;;;;7.07;4.47;;;;;;;2.64;71.39;98130.53;5015419;28;20141;-78
2022/01/24 04:07:08;;;;;;;6.30;4.60;;;;;;;2.70;71.32;98131.91;5015017;28;20046;-78
2022/01/24 04:09:38;;;;;;;6.38;5.00;;;;;;;2.67;71.20;98134.69;5016458;28;20069;-78
2022/01/24 04:12:08;;;;;;;5.10;4.57;;;;;;;2.66;70.93;98140.75;5017313;28;20050;-78
2022/01/24 04:14:39;;;;;;;5.72;4.45;;;;;;;2.61;70.55;98143.63;5016869;28;20050;-77
2022/01/24 04:17:23;;;;;;;6.15;4.53;;;;;;;2.58;70.85;98143.81;5016767;28;20046;-77
2022/01/24 04:22:47;;;;;;;5.65;3.65;;;;;;;2.55;70.62;98141.41;5015373;28;19925;-79
2022/01/24 04:25:16;;;;;;;5.18;4.60;;;;;;;2.48;70.60;98146.13;5015651;28;20085;-80
2022/01/24 04:27:44;;;;;;;6.53;4.93;;;;;;;2.48;70.56;98153.84;5014980;28;20053;-77
2022/01/24 04:30:12;;;;;;;7.55;4.38;;;;;;;2.48;70.70;98147.88;5015380;28;20050;-77
2022/01/24 04:32:41;;;;;;;4.97;4.47;;;;;;;2.46;70.51;98140.22;5014870;28;20511;-77
2022/01/24 04:35:09;;;;;;;7.90;4.95;;;;;;;2.49;70.71;98149.50;5015142;28;20054;-79
2022/01/24 04:37:37;;;;;;;10.82;6.10;;;;;;;2.51;71.24;98146.84;5014664;28;20053;-79
2022/01/24 04:40:06;;;;;;;6.30;4.90;;;;;;;2.53;70.85;98148.41;5014642;28;20133;-77
2022/01/24 04:42:42;;;;;;;5.70;5.10;;;;;;;2.48;70.29;98143.53;5014503;28;20515;-77
2022/01/24 04:45:28;;;;;;;6.28;5.25;;;;;;;2.47;70.76;98141.03;5014845;28;20061;-77
2022/01/24 04:51:00;;;;;;;5.05;4.50;;;;;;;2.56;70.83;98134.50;4989219;28;20053;-77
2022/01/24 04:53:50;;;;;;;12.15;5.07;;;;;;;2.57;70.50;98136.19;5014616;28;20057;-77
2022/01/24 04:56:18;;;;;;;7.70;4.85;;;;;;;2.58;70.66;98137.81;5014265;28;20046;-78
2022/01/24 04:58:45;;;;;;;5.75;5.15;;;;;;;2.60;70.47;98141.13;5014389;28;20060;-78
2022/01/24 05:01:14;;;;;;;4.68;4.22;;;;;;;2.61;70.22;98143.63;5014076;28;20053;-78
2022/01/24 05:03:43;;;;;;;7.20;5.97;;;;;;;2.58;70.18;98148.13;5014697;28;20060;-77
2022/01/24 05:06:13;;;;;;;5.93;4.80;;;;;;;2.55;69.69;98148.31;5014545;28;20056;-77
2022/01/24 05:08:41;;;;;;;5.97;4.35;;;;;;;2.53;69.73;98150.16;5014712;28;20053;-78
2022/01/24 05:11:12;;;;;;;4.13;3.72;;;;;;;2.47;69.90;98151.34;5015029;28;20057;-80
2022/01/24 05:24:42;;;;;;;4.88;4.30;;;;;;;2.41;70.14;98154.31;5014200;28;20057;-78
2022/01/24 05:27:09;;;;;;;6.00;5.40;;;;;;;2.42;71.27;98151.63;5013605;28;20049;-77
2022/01/24 05:29:37;;;;;;;5.90;4.53;;;;;;;2.45;70.84;98154.03;5013863;28;20504;-77
2022/01/24 05:32:08;;;;;;;5.25;4.55;;;;;;;2.47;70.67;98162.50;5014147;28;20046;-77
2022/01/24 05:34:37;;;;;;;6.57;5.28;;;;;;;2.46;71.19;98160.81;5014266;28;20061;-78
2022/01/24 05:37:04;;;;;;;7.65;4.85;;;;;;;2.48;70.64;98161.56;5013659;28;20053;-77
2022/01/24 05:39:32;;;;;;;5.20;3.85;;;;;;;2.50;70.31;98161.47;5013899;28;20053;-77
2022/01/24 05:41:59;;;;;;;5.35;3.53;;;;;;;2.47;70.33;98170.22;5013834;28;20060;-77
2022/01/24 05:44:27;;;;;;;4.60;4.00;;;;;;;2.48;70.29;98173.63;5013678;28;20054;-79
2022/01/24 05:46:54;;;;;;;4.88;3.50;;;;;;;2.46;69.78;98173.72;5013815;28;20045;-80
2022/01/24 05:49:22;;;;;;;5.43;3.60;;;;;;;2.46;69.82;98175.47;5014611;28;20050;-78
2022/01/24 05:51:51;;;;;;;4.22;3.83;;;;;;;2.43;69.88;98175.66;5014027;28;20045;-79
2022/01/24 05:54:18;;;;;;;3.53;3.20;;;;;;;2.42;69.91;98182.53;5014440;28;20049;-77
2022/01/24 05:56:46;;;;;;;5.00;3.70;;;;;;;2.40;70.31;98174.06;5013584;28;20045;-77
2022/01/24 05:59:13;;;;;;;6.45;4.05;;;;;;;2.40;70.07;98180.97;5014158;28;20058;-78
2022/01/24 06:01:41;;;;;;;4.85;3.35;;;;;;;2.39;69.89;98184.47;5014708;28;20111;-77
2022/01/24 06:04:10;;;;;;;5.28;3.67;;;;;;;2.35;70.38;98173.53;5013941;28;20054;-77
2022/01/24 06:06:37;;;;;;;3.40;3.10;;;;;;;2.33;70.64;98180.50;5013189;28;20046;-79
2022/01/24 06:09:06;;;;;;;5.28;3.83;;;;;;;2.36;70.54;98177.78;5013972;28;20050;-78
2022/01/24 06:11:34;;;;;;;3.67;3.38;;;;;;;2.38;70.11;98182.81;5013733;28;20058;-77
2022/01/24 06:14:03;;;;;;;4.53;3.22;;;;;;;2.39;70.33;98185.31;5013662;28;20049;-78
2022/01/24 06:16:30;;;;;;;7.47;4.53;;;;;;;2.39;70.26;98180.16;5013070;28;20050;-79
2022/01/24 06:18:59;;;;;;;4.88;4.20;;;;;;;2.39;70.51;98180.16;5013672;28;20053;-78
2022/01/24 06:21:26;;;;;;;6.88;3.95;;;;;;;2.41;70.40;98180.06;5013231;28;20057;-77
2022/01/24 06:23:54;;;;;;;6.53;3.72;;;;;;;2.40;70.25;98183.56;5011721;28;20512;-77
2022/01/24 06:26:23;;;;;;;4.45;3.67;;;;;;;2.37;70.58;98166.53;5008794;28;20054;-77
2022/01/24 06:28:50;;;;;;;4.95;4.50;;;;;;;2.37;70.65;98171.69;5001942;28;20409;-79
2022/01/24 06:31:20;;;;;;;4.10;3.60;;;;;;;2.39;70.30;98175.00;5014026;28;20046;-78
2022/01/24 06:33:48;;;;;;;6.90;4.10;;;;;;;2.37;70.81;98179.41;4999679;28;20050;-79
2022/01/24 06:36:16;;;;;;;7.13;4.22;;;;;;;2.37;70.83;98187.13;4993510;28;20505;-77
2022/01/24 06:38:43;;;;;;;6.03;4.53;;;;;;;2.37;70.84;98182.00;4994096;28;20046;-78
2022/01/24 06:41:11;;;;;;;6.63;4.88;;;;;;;2.40;70.43;98186.94;4993882;28;20069;-78
2022/01/24 06:43:40;;;;;;;6.82;4.72;;;;;;;2.40;70.84;98202.41;4993526;28;20496;-79
2022/01/24 06:46:07;;;;;;;6.60;5.97;;;;;;;2.40;70.77;98192.09;4993454;28;20054;-77
2022/01/24 06:48:35;;;;;;;5.05;4.53;;;;;;;2.40;70.75;98192.09;4993778;28;20129;-79
2022/01/24 06:51:04;;;;;;;5.93;4.95;;;;;;;2.42;70.71;98192.84;4993755;28;20107;-76
2022/01/24 06:53:32;;;;;;;7.25;5.13;;;;;;;2.43;70.94;98202.25;4993461;28;20054;-77
2022/01/24 06:55:59;;;;;;;7.45;5.00;;;;;;;2.46;70.95;98198.66;4993555;28;20058;-78
2022/01/24 06:58:28;;;;;;;6.03;5.43;;;;;;;2.51;70.87;98195.78;4999633;28;20038;-77
2022/01/24 07:00:58;;;;;;;6.00;5.40;;;;;;;2.53;70.77;98206.84;5006151;28;20622;-77
2022/01/24 07:03:26;;;;;;;6.28;5.32;;;;;;;2.54;70.64;98211.91;5011047;28;20058;-76
2022/01/24 07:05:54;;;;;;;8.38;6.57;;;;;;;2.56;71.56;98206.63;5011762;28;20057;-78
2022/01/24 07:08:21;;;;;;;7.45;5.85;;;;;;;2.63;72.82;98213.09;5012599;28;20419;-78
2022/01/24 07:10:49;;;;;;;7.28;6.05;;;;;;;2.68;72.55;98216.22;5012788;28;20054;-77
2022/01/24 07:13:16;;;;;;;7.38;6.15;;;;;;;2.71;72.04;98220.34;5013304;28;20053;-77
2022/01/24 07:15:48;;;;;;;7.80;5.82;;;;;;;2.70;71.20;98219.53;5003122;28;20515;-77
2022/01/24 07:21:04;;;;;;;7.63;5.90;;;;;;;2.63;70.64;98233.72;4997606;28;20051;-78
2022/01/24 07:23:32;;;;;;;8.82;6.25;;;;;;;2.60;70.66;98226.16;4997193;28;20057;-78
2022/01/24 07:26:01;;;;;;;7.03;6.22;;;;;;;2.57;70.57;98232.31;4996352;28;20046;-78
2022/01/24 07:28:28;;;;;;;6.30;5.70;;;;;;;2.54;70.57;98218.81;5007314;28;20051;-77
2022/01/24 07:30:56;;;;;;;9.95;6.75;;;;;;;2.54;71.96;98235.09;5018277;28;20108;-78
2022/01/24 07:33:25;;;;;;;8.40;6.43;;;;;;;2.54;71.39;98234.25;5031126;28;20054;-78
2022/01/24 07:35:52;;;;;;;10.25;6.68;;;;;;;2.53;70.92;98228.25;5035323;28;20049;-78
2022/01/24 07:38:20;;;;;;;8.95;6.57;;;;;;;2.52;70.74;98231.78;5034256;28;20076;-77
2022/01/24 07:40:50;;;;;;;8.23;6.47;;;;;;;2.51;71.41;98226.69;5024546;28;20050;-77
2022/01/24 07:43:17;;;;;;;10.30;7.32;;;;;;;2.52;70.97;98228.38;5050862;22;20060;-78
2022/01/24 07:45:47;;;;;;;12.15;7.22;;;;;;;2.51;71.44;98231.84;5033833;28;20057;-78
2022/01/24 07:48:17;;;;;;;7.07;6.20;;;;;;;2.51;71.17;98234.44;5037530;28;20518;-77
2022/01/24 07:50:47;;;;;;;9.55;7.35;;;;;;;2.52;70.94;98242.06;5050088;28;20053;-79
2022/01/24 07:53:17;;;;;;;11.00;7.47;;;;;;;2.51;71.13;98235.25;5049774;28;20053;-77
2022/01/24 07:56:05;;;;;;;9.95;6.93;;;;;;;2.53;70.75;98238.56;5036797;28;20416;-76
2022/01/24 07:58:33;;;;;;;7.57;6.60;;;;;;;2.53;70.92;98232.59;5036606;28;20064;-77
2022/01/24 08:01:01;;;;;;;11.05;6.80;;;;;;;2.52;70.79;98242.06;5041118;28;20423;-79
2022/01/24 08:03:29;;;;;;;7.35;6.32;;;;;;;2.46;70.87;98230.38;5046988;28;20075;-77
2022/01/24 08:05:58;;;;;;;9.25;6.70;;;;;;;2.43;70.70;98225.41;5038936;28;20056;-77
2022/01/24 08:08:26;;;;;;;9.68;7.53;;;;;;;2.44;71.02;98223.66;5035668;28;20491;-76
2022/01/24 08:10:53;;;;;;;15.85;9.05;;;;;;;2.46;70.83;98222.66;5035423;28;20046;-79
2022/01/24 08:13:21;;;;;;;14.88;8.77;;;;;;;2.50;71.22;98228.44;5035581;28;20050;-76
2022/01/24 08:15:48;;;;;;;9.70;7.88;;;;;;;2.54;71.24;98237.66;5034774;28;20060;-77
2022/01/24 08:18:16;;;;;;;11.13;7.63;;;;;;;2.61;71.51;98245.84;5025041;28;20050;-77
2022/01/24 08:20:43;;;;;;;12.45;6.80;;;;;;;2.65;71.12;98244.75;5034320;28;20049;-77
2022/01/24 08:23:13;;;;;;;10.38;6.65;;;;;;;2.68;70.74;98255.69;5035328;28;20080;-77
2022/01/24 08:25:41;;;;;;;11.95;6.57;;;;;;;2.72;70.44;98248.63;5035333;28;20049;-77
2022/01/24 08:28:09;;;;;;;10.23;6.35;;;;;;;2.76;70.25;98244.94;5034971;28;20518;-76
2022/01/24 08:30:36;;;;;;;10.63;6.60;;;;;;;2.82;70.14;98243.72;5034972;28;20057;-75
2022/01/24 08:33:05;;;;;;;8.85;6.00;;;;;;;2.84;70.23;98247.88;5035058;28;20050;-77
2022/01/24 08:35:34;;;;;;;7.88;6.15;;;;;;;2.87;71.05;98245.09;5035070;28;20052;-77
2022/01/24 08:38:02;;;;;;;6.15;4.53;;;;;;;2.90;70.44;98246.66;5034030;28;20534;-77
2022/01/24 08:40:33;;;;;;;6.45;4.72;;;;;;;2.93;70.18;98248.22;5035256;28;20053;-76
2022/01/24 08:43:03;;;;;;;4.85;4.00;;;;;;;2.97;69.59;98252.28;5034576;28;20511;-77
2022/01/24 08:45:50;;;;;;;4.75;3.85;;;;;;;3.00;69.19;98257.25;5034422;28;20057;-77
2022/01/24 08:48:20;;;;;;;7.45;4.07;;;;;;;3.05;69.30;98258.63;5041798;28;20045;-79
2022/01/24 08:50:50;;;;;;;5.55;3.92;;;;;;;3.08;68.88;98249.88;5044914;28;20224;-77
2022/01/24 08:53:23;;;;;;;6.53;3.83;;;;;;;3.13;69.84;98247.84;5044137;28;20049;-77
2022/01/24 08:55:53;;;;;;;5.13;4.05;;;;;;;3.23;70.69;98243.75;5035967;28;20522;-79
2022/01/24 08:58:23;;;;;;;5.43;3.85;;;;;;;3.35;69.56;98256.84;5036678;28;20060;-78
2022/01/24 09:00:51;;;;;;;4.03;3.28;;;;;;;3.45;68.94;98252.75;5035308;28;20057;-77
2022/01/24 09:03:19;;;;;;;6.13;4.05;;;;;;;3.51;68.50;98247.22;5042747;28;20054;-78
2022/01/24 09:05:48;;;;;;;3.72;3.35;;;;;;;3.59;68.50;98250.13;5045645;28;20053;-78
2022/01/24 09:08:15;;;;;;;5.28;4.03;;;;;;;3.69;68.35;98250.38;5038341;28;20049;-77
2022/01/24 09:10:44;;;;;;;3.65;3.35;;;;;;;3.78;67.87;98260.09;5037215;28;20053;-78
2022/01/24 09:13:13;;;;;;;4.43;3.45;;;;;;;3.89;68.33;98257.69;5035276;28;20057;-77
2022/01/24 09:15:41;;;;;;;5.75;3.55;;;;;;;4.02;67.86;98251.69;5035361;28;20076;-77
2022/01/24 09:18:09;;;;;;;4.22;3.20;;;;;;;4.11;68.63;98251.09;5034409;28;20050;-77
2022/01/24 09:20:38;;;;;;;5.28;3.42;;;;;;;4.25;70.26;98248.44;5034976;28;20089;-77
2022/01/24 09:23:06;;;;;;;5.35;3.40;;;;;;;4.43;70.94;98256.72;5034617;28;20188;-78
2022/01/24 09:25:35;;;;;;;3.10;2.50;;;;;;;4.56;68.42;98263.66;5034558;28;20049;-77
2022/01/24 09:28:02;;;;;;;3.17;2.85;;;;;;;4.58;68.51;98259.22;5034603;28;20075;-78
2022/01/24 09:30:32;;;;;;;2.83;2.22;;;;;;;4.59;66.75;98263.44;5035045;28;20045;-77
2022/01/24 09:33:00;;;;;;;6.03;2.85;;;;;;;4.63;66.78;98262.31;5034172;28;20072;-77
2022/01/24 09:35:29;;;;;;;3.88;2.20;;;;;;;4.69;66.38;98267.06;5034501;28;20045;-77
2022/01/24 09:37:57;;;;;;;4.22;2.80;;;;;;;4.81;68.55;98275.75;5034344;28;20063;-77
2022/01/24 09:40:25;;;;;;;3.25;2.38;;;;;;;4.90;67.58;98265.63;5034892;28;20049;-77
2022/01/24 09:42:53;;;;;;;2.10;2.00;;;;;;;4.99;66.76;98269.34;5034749;28;20064;-77
2022/01/24 09:45:21;;;;;;;3.20;2.90;;;;;;;5.04;68.20;98271.59;5037249;28;20400;-79
2022/01/24 09:47:52;;;;;;;3.38;2.35;;;;;;;5.06;66.11;98273.16;5036516;28;20050;-79
2022/01/24 09:50:20;;;;;;;5.00;2.22;;;;;;;5.10;65.73;98271.19;5036360;28;20045;-77
2022/01/24 09:52:49;;;;;;;2.55;2.10;;;;;;;5.18;68.13;98268.88;5036755;28;20053;-80
2022/01/24 09:55:21;;;;;;;2.80;2.00;;;;;;;5.32;69.21;98271.34;5036993;28;20053;-81
2022/01/24 09:57:50;;;;;;;1.98;1.50;;;;;;;5.49;69.54;98267.56;5027754;28;20053;-76
2022/01/24 10:00:21;;;;;;;3.67;2.90;;;;;;;5.68;66.14;98274.81;5038933;28;20466;-79
2022/01/24 10:02:51;;;;;;;7.45;2.80;;;;;;;5.89;66.54;98271.66;5039129;28;20486;-77
2022/01/24 10:05:39;;;;;;;8.82;3.00;;;;;;;6.25;66.47;98260.38;5038102;28;20443;-79
2022/01/24 10:08:27;;;;;;;3.88;2.00;;;;;;;6.87;64.88;98260.97;5040057;28;20060;-78
2022/01/24 10:10:57;;;;;;;7.75;2.40;;;;;;;8.02;61.55;98262.25;5038361;28;20053;-78
2022/01/24 10:16:25;;;;;;;3.65;2.78;;;;;;;11.66;51.57;98255.34;5037867;28;20057;-81
2022/01/24 10:19:04;;;;;;;4.15;2.88;;;;;;;12.85;46.88;98252.38;5035318;28;20128;-77
2022/01/24 10:21:53;;;;;;;2.22;1.90;;;;;;;14.54;43.63;98240.78;5035764;28;20085;-77
2022/01/24 10:24:32;;;;;;;2.42;2.10;;;;;;;15.57;39.45;98244.38;5037074;28;20045;-79
2022/01/24 10:27:08;;;;;;;1.98;1.75;;;;;;;15.95;37.39;98245.31;5038249;28;20069;-78
2022/01/24 10:29:42;;;;;;;7.65;2.10;;;;;;;15.96;37.37;98236.44;5039702;28;20056;-78
2022/01/24 10:32:27;;;;;;;2.08;1.95;;;;;;;16.67;36.95;98246.69;5042242;28;20064;-78
2022/01/24 10:34:56;;;;;;;4.63;2.00;;;;;;;17.65;35.13;98240.25;5041200;28;20056;-79
2022/01/24 10:37:25;;;;;;;2.67;2.00;;;;;;;18.37;34.19;98241.16;5039681;28;20055;-78
2022/01/24 10:39:57;;;;;;;2.00;1.60;;;;;;;18.66;32.92;98231.41;5036576;28;20055;-78
2022/01/24 10:42:42;;;;;;;;;;;;;;;18.94;33.12;98229.56;5037739;28;20049;-79
2022/01/24 10:45:15;;;;;;;3.17;1.70;;;;;;;19.33;31.34;98235.25;5036719;28;19921;-80
2022/01/24 10:47:47;;;;;;;1.90;1.40;;;;;;;19.65;31.00;98228.41;5037229;28;20100;-77
2022/01/24 10:50:23;;;;;;;2.10;1.60;;;;;;;20.08;29.67;98228.13;5036608;28;20633;-78
2022/01/24 10:52:52;;;;;;;4.30;1.50;;;;;;;20.29;30.71;98221.81;5037294;28;20273;-79
2022/01/24 10:55:24;;;;;;;3.97;2.22;;;;;;;20.24;29.66;98216.31;5038079;28;20049;-79
2022/01/24 10:57:56;;;;;;;2.30;1.42;;;;;;;20.70;29.22;98219.97;5038554;28;20058;-78
2022/01/24 11:00:27;;;;;;;2.00;1.70;;;;;;;21.08;28.30;98217.44;5039245;28;20423;-77
2022/01/24 11:02:56;;;;;;;3.70;2.30;;;;;;;21.27;28.85;98215.72;5039513;28;20061;-77
2022/01/24 11:05:28;;;;;;;2.67;1.63;;;;;;;20.31;28.66;98211.84;5043957;28;20466;-82
2022/01/24 11:07:57;;;;;;;2.38;1.80;;;;;;;18.93;30.94;98213.91;5044160;28;20074;-78
2022/01/24 11:10:27;;;;;;;3.70;2.35;;;;;;;18.50;32.55;98214.84;5055674;28;20049;-80
2022/01/24 11:12:58;;;;;;;2.92;2.72;;;;;;;18.32;34.45;98207.41;5059873;28;20108;-82
2022/01/24 11:15:27;;;;;;;2.40;2.20;;;;;;;19.17;32.27;98203.84;5052635;28;20073;-79
2022/01/24 11:17:58;;;;;;;6.15;1.50;;;;;;;19.24;31.08;98200.22;5045266;28;20042;-79
2022/01/24 11:20:31;;;;;;;3.35;1.83;;;;;;;19.54;31.07;98195.41;5046661;28;20049;-77
2022/01/24 11:23:01;;;;;;;1.98;1.75;;;;;;;20.07;29.68;98193.88;5059990;28;20044;-82
2022/01/24 11:25:32;;;;;;;2.03;1.83;;;;;;;20.68;29.93;98187.53;5053405;28;20109;-80
2022/01/24 11:28:00;;;;;;;2.88;1.23;;;;;;;20.91;28.05;98187.09;5044225;28;20056;-80
2022/01/24 11:30:33;;;;;;;2.72;2.08;;;;;;;20.50;30.53;98183.66;5045783;28;20049;-79
2022/01/24 11:33:07;;;;;;;1.90;1.58;;;;;;;20.79;27.78;98184.25;5043107;28;20050;-78
2022/01/24 11:35:40;;;;;;;3.50;1.50;;;;;;;20.84;27.27;98180.97;5044407;28;20053;-78
2022/01/24 11:38:27;;;;;;;2.60;1.20;;;;;;;21.29;29.24;98184.47;5041354;28;20050;-78
2022/01/24 11:40:59;;;;;;;1.63;1.40;;;;;;;20.57;27.73;98179.22;5042170;28;20053;-78
2022/01/24 11:43:34;;;;;;;2.13;1.13;;;;;;;20.28;29.13;98184.94;5041306;28;20426;-79
2022/01/24 11:46:07;;;;;;;1.95;1.30;;;;;;;20.50;28.10;98178.38;5040210;28;20327;-77
2022/01/24 11:48:36;;;;;;;7.97;3.25;;;;;;;20.35;30.44;98185.72;5042468;28;20049;-79
2022/01/24 11:51:09;;;;;;;2.85;1.45;;;;;;;20.05;28.45;98180.88;5042143;28;20049;-79
2022/01/24 11:53:42;;;;;;;3.85;1.70;;;;;;;19.39;29.73;98178.06;5040303;28;20052;-80
2022/01/24 11:56:24;;;;;;;;;;;;;;;19.66;31.43;98174.47;5040286;28;20045;-78
2022/01/24 11:59:12;;;;;;;3.15;1.50;;;;;;;19.92;29.52;98168.44;5039858;28;19928;-77
2022/01/24 12:01:40;;;;;;;2.33;1.08;;;;;;;19.69;30.43;98160.84;5037450;28;20057;-76
2022/01/24 12:04:08;;;;;;;1.25;1.08;;;;;;;19.45;30.34;98159.56;5036854;28;20128;-75
2022/01/24 12:07:20;;;;;;;2.53;1.40;;;;;;;19.68;30.10;98159.22;5036912;28;20103;-75
2022/01/24 12:09:48;;;;;;;3.85;1.50;;;;;;;19.59;30.00;98164.88;4999396;28;20056;-76
2022/01/24 12:12:44;;;;;;;2.60;1.15;;;;;;;19.37;31.57;98162.38;5038821;28;20108;-77
2022/01/24 12:15:32;;;;;;;1.85;1.10;;;;;;;19.12;30.20;98156.81;5018536;28;20420;-77
2022/01/24 12:18:02;;;;;;;1.42;1.17;;;;;;;18.69;30.44;98154.34;5019457;28;20077;-77
2022/01/24 12:20:49;;;;;;;1.45;1.25;;;;;;;18.45;30.55;98148.53;5022411;28;20463;-77
2022/01/24 12:23:38;;;;;;;8.13;1.45;;;;;;;18.51;30.08;98150.41;5038018;28;20589;-78
2022/01/24 12:26:29;;;;;;;3.38;1.30;;;;;;;18.46;30.69;98144.88;5037552;28;20111;-78
2022/01/24 12:29:02;;;;;;;3.20;1.58;;;;;;;18.30;30.61;98146.03;5036275;28;20053;-75
2022/01/24 12:31:34;;;;;;;1.83;1.13;;;;;;;18.00;30.71;98142.75;5035494;28;20045;-75
2022/01/24 12:34:14;;;;;;;3.50;1.40;;;;;;;18.07;30.76;98140.97;5036374;28;20081;-77
2022/01/24 12:37:02;;;;;;;1.85;1.30;;;;;;;19.14;28.74;98138.94;5035374;28;20075;-75
2022/01/24 12:39:58;;;;;;;3.03;1.15;;;;;;;19.18;28.37;98136.72;5036086;28;20076;-77
2022/01/24 12:42:51;;;;;;;3.45;1.30;;;;;;;17.78;30.56;98130.56;5030565;28;20558;-78
2022/01/24 12:48:30;;;;;;;2.45;1.27;;;;;;;14.49;35.21;98119.66;5040255;28;20415;-80
2022/01/24 12:50:58;;;;;;;4.30;1.58;;;;;;;13.52;37.05;98124.88;5039842;28;20041;-76
2022/01/24 12:53:26;;;;;;;1.98;1.40;;;;;;;12.73;38.35;98118.28;5042153;28;20045;-79
2022/01/24 12:56:00;;;;;;;2.72;1.33;;;;;;;11.86;40.06;98118.25;5055314;28;20072;-80
2022/01/24 12:58:32;;;;;;;4.32;1.45;;;;;;;11.24;41.52;98115.63;5053668;28;20050;-82
2022/01/24 13:01:00;;;;;;;2.70;1.80;;;;;;;10.87;42.29;98113.09;5043025;28;20053;-79
2022/01/24 13:03:48;;;;;;;2.60;1.45;;;;;;;10.55;43.56;98111.75;5036613;28;20067;-80
2022/01/24 13:06:16;;;;;;;1.67;1.58;;;;;;;10.35;43.75;98108.41;5035240;28;20064;-80
2022/01/24 13:08:58;;;;;;;2.83;1.65;;;;;;;10.11;44.75;98106.25;5042140;28;20049;-79
2022/01/24 13:11:29;;;;;;;3.85;1.45;;;;;;;9.93;45.17;98100.94;5048788;28;20041;-79
2022/01/24 13:14:03;;;;;;;2.53;1.65;;;;;;;9.82;45.51;98103.72;5041057;28;20049;-82
2022/01/24 13:22:30;;;;;;;6.10;2.17;;;;;;;9.41;46.69;98101.28;5036045;28;20052;-81